Time;durP1;ratioP1;P1;durP2;ratioP2;P2;SDS_P1;SDS_P2;PMS_P1;PMS_P2;Temp;Humidity;BMP_temperature;BMP_pressure;BME280_temperature;BME280_humidity;BME280_pressure;Samples;Min_cycle;Max_cycle;Signal;HPM_P1;HPM_P2
2023/05/20 00:01:58;;;;;;;13.15;3.72;;;;;;;;;;5051739;28;20697;-68
2023/05/20 00:04:23;;;;;;;8.85;3.67;;;;;;;;;;5051139;28;20231;-67
2023/05/20 00:06:49;;;;;;;8.63;3.47;;;;;;;;;;5050754;28;20207;-68
2023/05/20 00:09:16;;;;;;;9.80;4.13;;;;;;;;;;5050846;28;20280;-68
2023/05/20 00:11:41;;;;;;;10.80;4.13;;;;;;;;;;5051467;28;20229;-67
2023/05/20 00:14:06;;;;;;;10.77;3.85;;;;;;;;;;5050058;28;20203;-67
2023/05/20 00:16:31;;;;;;;8.48;3.38;;;;;;;;;;5051223;28;20203;-67
2023/05/20 00:18:57;;;;;;;10.10;3.85;;;;;;;;;;5050810;28;20305;-68
2023/05/20 00:21:22;;;;;;;9.60;3.40;;;;;;;;;;5049990;28;20203;-67
2023/05/20 00:23:47;;;;;;;12.15;4.22;;;;;;;;;;5051299;28;20297;-68
2023/05/20 00:26:13;;;;;;;10.02;4.07;;;;;;;;;;5050508;28;20252;-67
2023/05/20 00:28:38;;;;;;;9.60;3.88;;;;;;;;;;5050425;28;20615;-68
2023/05/20 00:31:03;;;;;;;10.43;3.83;;;;;;;;;;5050714;28;20576;-66
2023/05/20 00:33:29;;;;;;;12.98;4.35;;;;;;;;;;5049636;28;20203;-67
2023/05/20 00:35:54;;;;;;;11.48;4.15;;;;;;;;;;5050212;28;20675;-68
2023/05/20 00:38:19;;;;;;;11.27;4.03;;;;;;;;;;5050292;28;20219;-67
2023/05/20 00:40:45;;;;;;;11.77;4.55;;;;;;;;;;5050777;28;20218;-68
2023/05/20 00:43:10;;;;;;;11.48;4.22;;;;;;;;;;5049756;28;20724;-67
2023/05/20 00:45:35;;;;;;;9.07;4.65;;;;;;;;;;5050757;28;20722;-67
2023/05/20 00:48:02;;;;;;;10.52;4.28;;;;;;;;;;5050243;28;20294;-67
2023/05/20 00:50:28;;;;;;;13.40;4.90;;;;;;;;;;5050377;28;20250;-67
2023/05/20 00:52:54;;;;;;;9.98;4.10;;;;;;;;;;5050733;28;20678;-67
2023/05/20 00:55:20;;;;;;;9.38;4.50;;;;;;;;;;5049270;28;20215;-67
2023/05/20 00:57:45;;;;;;;11.85;5.28;;;;;;;;;;5050787;28;20306;-67
2023/05/20 01:00:10;;;;;;;11.93;4.20;;;;;;;;;;5050013;28;20621;-67
2023/05/20 01:02:36;;;;;;;14.63;4.90;;;;;;;;;;5049837;28;20305;-67
2023/05/20 01:05:01;;;;;;;10.48;4.30;;;;;;;;;;5049998;28;20213;-67
2023/05/20 01:07:26;;;;;;;9.82;4.72;;;;;;;;;;5050504;28;20207;-67
2023/05/20 01:09:53;;;;;;;11.15;4.35;;;;;;;;;;5049605;28;20226;-67
2023/05/20 01:12:28;;;;;;;14.70;4.82;;;;;;;;;;5047997;28;20706;-67
2023/05/20 01:14:55;;;;;;;9.05;4.53;;;;;;;;;;5050213;28;20199;-67
2023/05/20 01:17:21;;;;;;;14.60;5.07;;;;;;;;;;5047775;28;20289;-67
2023/05/20 01:19:47;;;;;;;10.52;5.00;;;;;;;;;;5050054;28;20231;-68
2023/05/20 01:22:13;;;;;;;11.20;4.50;;;;;;;;;;5049783;28;20203;-67
2023/05/20 01:24:39;;;;;;;12.77;5.07;;;;;;;;;;5049532;28;20248;-67
2023/05/20 01:27:09;;;;;;;9.77;4.57;;;;;;;;;;5049649;28;20211;-67
2023/05/20 01:29:35;;;;;;;11.07;4.70;;;;;;;;;;5050183;28;20258;-68
2023/05/20 01:32:00;;;;;;;10.45;5.00;;;;;;;;;;5047732;28;20222;-63
2023/05/20 01:34:26;;;;;;;12.35;5.57;;;;;;;;;;5048807;28;20211;-67
2023/05/20 01:36:51;;;;;;;11.98;5.00;;;;;;;;;;5050225;28;20248;-67
2023/05/20 01:39:25;;;;;;;10.00;4.45;;;;;;;;;;5047304;28;20207;-68
2023/05/20 01:41:51;;;;;;;11.82;5.00;;;;;;;;;;5049879;28;20221;-67
2023/05/20 01:44:16;;;;;;;10.73;5.13;;;;;;;;;;5048410;28;20210;-67
2023/05/20 01:46:41;;;;;;;11.80;5.18;;;;;;;;;;5049152;28;20322;-67
2023/05/20 01:49:06;;;;;;;12.00;5.00;;;;;;;;;;5049655;28;20776;-67
2023/05/20 01:51:34;;;;;;;13.77;4.65;;;;;;;;;;5049510;28;20301;-67
2023/05/20 01:53:59;;;;;;;10.75;4.57;;;;;;;;;;5049660;28;20246;-67
2023/05/20 01:56:24;;;;;;;10.90;5.60;;;;;;;;;;5049472;28;20952;-67
2023/05/20 01:58:49;;;;;;;13.07;4.80;;;;;;;;;;5049306;28;20203;-67
2023/05/20 02:01:15;;;;;;;12.43;4.97;;;;;;;;;;5047831;28;20199;-67
2023/05/20 02:03:40;;;;;;;12.43;4.95;;;;;;;;;;5049783;28;20207;-67
2023/05/20 02:06:05;;;;;;;10.25;5.30;;;;;;;;;;5048830;28;20211;-66
2023/05/20 02:08:30;;;;;;;12.13;4.90;;;;;;;;;;5049500;28;20336;-67
2023/05/20 02:10:56;;;;;;;11.05;4.55;;;;;;;;;;5049732;28;20250;-68
2023/05/20 02:13:21;;;;;;;9.68;4.45;;;;;;;;;;5048760;28;20207;-68
2023/05/20 02:15:46;;;;;;;10.80;5.03;;;;;;;;;;5049242;28;20234;-67
2023/05/20 02:18:12;;;;;;;13.38;5.20;;;;;;;;;;5049060;28;20307;-67
2023/05/20 02:20:38;;;;;;;12.50;5.15;;;;;;;;;;5049172;28;20290;-67
2023/05/20 02:23:06;;;;;;;10.63;5.13;;;;;;;;;;5050920;28;20294;-67
2023/05/20 02:25:31;;;;;;;10.60;4.80;;;;;;;;;;5053336;28;20234;-67
2023/05/20 02:27:56;;;;;;;15.82;4.82;;;;;;;;;;5052685;28;20246;-67
2023/05/20 02:30:22;;;;;;;11.20;4.97;;;;;;;;;;5052545;28;20223;-67
2023/05/20 02:32:47;;;;;;;13.00;5.30;;;;;;;;;;5053208;28;20203;-67
2023/05/20 02:35:12;;;;;;;11.70;4.70;;;;;;;;;;5052345;28;20226;-67
2023/05/20 02:37:38;;;;;;;11.07;5.25;;;;;;;;;;5052992;28;20213;-68
2023/05/20 02:40:03;;;;;;;11.50;4.85;;;;;;;;;;5052710;28;20744;-67
2023/05/20 02:42:29;;;;;;;12.40;5.20;;;;;;;;;;5052579;28;20238;-67
2023/05/20 02:44:57;;;;;;;12.90;5.38;;;;;;;;;;5052799;28;20662;-68
2023/05/20 02:47:22;;;;;;;9.93;4.53;;;;;;;;;;5052498;28;20578;-67
2023/05/20 02:49:47;;;;;;;11.05;4.90;;;;;;;;;;5052225;28;20215;-67
2023/05/20 02:52:13;;;;;;;13.00;5.40;;;;;;;;;;5052524;28;20655;-68
2023/05/20 02:54:38;;;;;;;13.73;5.05;;;;;;;;;;5052358;28;20270;-67
2023/05/20 02:57:03;;;;;;;8.80;5.45;;;;;;;;;;5052003;28;20203;-67
2023/05/20 02:59:28;;;;;;;12.85;4.53;;;;;;;;;;5052613;28;20727;-67
2023/05/20 03:01:54;;;;;;;9.25;4.78;;;;;;;;;;5052211;28;20211;-67
2023/05/20 03:04:20;;;;;;;10.07;4.85;;;;;;;;;;5052139;28;20210;-67
2023/05/20 03:06:45;;;;;;;10.90;4.85;;;;;;;;;;5052711;28;20598;-67
2023/05/20 03:09:10;;;;;;;10.38;5.10;;;;;;;;;;5051457;28;20757;-67
2023/05/20 03:11:36;;;;;;;12.13;4.85;;;;;;;;;;5052188;28;20211;-67
2023/05/20 03:14:01;;;;;;;10.77;5.30;;;;;;;;;;5051784;28;20239;-66
2023/05/20 03:16:26;;;;;;;11.65;5.30;;;;;;;;;;5051724;28;20211;-68
2023/05/20 03:18:53;;;;;;;11.52;5.28;;;;;;;;;;5051965;28;20694;-67
2023/05/20 03:21:18;;;;;;;10.88;4.93;;;;;;;;;;5051937;28;20235;-67
2023/05/20 03:23:44;;;;;;;10.52;5.10;;;;;;;;;;5051705;28;20292;-67
2023/05/20 03:26:09;;;;;;;15.05;5.70;;;;;;;;;;5051631;28;20217;-66
2023/05/20 03:28:34;;;;;;;13.02;5.32;;;;;;;;;;5051991;28;20222;-67
2023/05/20 03:31:01;;;;;;;13.75;5.45;;;;;;;;;;5051537;28;20290;-67
2023/05/20 03:33:26;;;;;;;9.98;4.80;;;;;;;;;;5051505;28;20290;-67
2023/05/20 03:35:52;;;;;;;9.32;5.43;;;;;;;;;;5051674;28;20294;-67
2023/05/20 03:38:17;;;;;;;10.32;5.57;;;;;;;;;;5051235;28;20682;-67
2023/05/20 03:40:42;;;;;;;10.55;5.00;;;;;;;;;;5051687;28;20207;-67
2023/05/20 03:43:07;;;;;;;7.00;4.65;;;;;;;;;;5051444;28;20229;-66
2023/05/20 03:45:33;;;;;;;12.38;4.63;;;;;;;;;;5051306;28;20590;-67
2023/05/20 03:47:58;;;;;;;10.30;5.53;;;;;;;;;;5051649;28;20221;-67
2023/05/20 03:50:23;;;;;;;11.60;5.10;;;;;;;;;;5051369;28;20215;-66
2023/05/20 03:52:49;;;;;;;7.80;4.40;;;;;;;;;;5051058;28;20202;-67
2023/05/20 03:55:15;;;;;;;8.13;4.80;;;;;;;;;;5051165;28;20631;-66
2023/05/20 03:57:40;;;;;;;9.65;5.20;;;;;;;;;;5051492;28;20207;-67
2023/05/20 04:00:10;;;;;;;12.05;5.13;;;;;;;;;;5050088;28;20211;-67
2023/05/20 04:02:35;;;;;;;9.07;5.15;;;;;;;;;;5051777;28;20207;-67
2023/05/20 04:05:01;;;;;;;9.88;5.40;;;;;;;;;;5050678;28;20218;-63
2023/05/20 04:07:26;;;;;;;8.18;4.55;;;;;;;;;;5051360;28;20256;-67
2023/05/20 04:09:51;;;;;;;10.02;5.85;;;;;;;;;;5051251;28;20226;-67
2023/05/20 04:12:18;;;;;;;11.25;4.55;;;;;;;;;;5050390;28;20294;-67
2023/05/20 04:14:43;;;;;;;14.38;5.30;;;;;;;;;;5050618;28;20697;-67
2023/05/20 04:17:09;;;;;;;8.73;5.15;;;;;;;;;;5050943;28;20203;-67
2023/05/20 04:19:35;;;;;;;8.05;5.13;;;;;;;;;;5050328;28;20233;-68
2023/05/20 04:22:00;;;;;;;11.50;5.00;;;;;;;;;;5049780;28;20207;-68
2023/05/20 04:24:26;;;;;;;10.70;5.07;;;;;;;;;;5050787;28;20257;-68
2023/05/20 04:26:51;;;;;;;8.82;4.95;;;;;;;;;;5050451;28;20762;-68
2023/05/20 04:29:17;;;;;;;9.68;5.13;;;;;;;;;;5050194;28;20234;-67
2023/05/20 04:31:44;;;;;;;9.32;4.93;;;;;;;;;;5050965;28;20207;-67
2023/05/20 04:34:09;;;;;;;9.75;4.50;;;;;;;;;;5049980;28;20319;-68
2023/05/20 04:36:37;;;;;;;9.00;4.93;;;;;;;;;;5050801;28;20875;-67
2023/05/20 04:39:02;;;;;;;11.98;5.03;;;;;;;;;;5050532;28;20235;-67
2023/05/20 04:41:28;;;;;;;9.60;4.57;;;;;;;;;;5050141;28;20288;-68
2023/05/20 04:43:53;;;;;;;7.55;4.32;;;;;;;;;;5050647;28;20322;-67
2023/05/20 04:46:19;;;;;;;8.88;4.40;;;;;;;;;;5049363;28;20211;-68
2023/05/20 04:48:44;;;;;;;11.48;4.70;;;;;;;;;;5050173;28;20306;-67
2023/05/20 04:51:09;;;;;;;7.93;4.47;;;;;;;;;;5050035;28;20230;-67
2023/05/20 04:53:35;;;;;;;11.05;4.55;;;;;;;;;;5050622;28;20235;-67
2023/05/20 04:56:00;;;;;;;10.52;4.53;;;;;;;;;;5049328;28;20207;-66
2023/05/20 04:58:28;;;;;;;11.52;4.90;;;;;;;;;;5050471;28;20241;-67
2023/05/20 05:00:53;;;;;;;8.85;4.28;;;;;;;;;;5050303;28;20231;-67
2023/05/20 05:03:18;;;;;;;10.98;4.03;;;;;;;;;;5049472;28;20250;-67
2023/05/20 05:05:44;;;;;;;7.53;4.22;;;;;;;;;;5050468;28;20206;-68
2023/05/20 05:08:10;;;;;;;8.27;4.07;;;;;;;;;;5050130;28;20203;-68
2023/05/20 05:10:35;;;;;;;7.88;4.30;;;;;;;;;;5049492;28;20237;-67
2023/05/20 05:13:01;;;;;;;9.30;4.00;;;;;;;;;;5049839;28;20681;-66
2023/05/20 05:15:26;;;;;;;10.60;3.90;;;;;;;;;;5049438;28;20223;-67
2023/05/20 05:17:51;;;;;;;9.02;3.72;;;;;;;;;;5049800;28;20581;-67
2023/05/20 05:20:16;;;;;;;8.02;3.45;;;;;;;;;;5049679;28;20261;-67
2023/05/20 05:22:42;;;;;;;8.90;3.70;;;;;;;;;;5049840;28;20215;-67
2023/05/20 05:25:07;;;;;;;7.45;3.50;;;;;;;;;;5049584;28;20219;-67
2023/05/20 05:27:33;;;;;;;10.07;3.55;;;;;;;;;;5050102;28;20241;-67
2023/05/20 05:29:59;;;;;;;7.60;3.70;;;;;;;;;;5049623;28;20709;-68
2023/05/20 05:32:24;;;;;;;8.68;3.42;;;;;;;;;;5049417;28;20237;-68
2023/05/20 05:34:49;;;;;;;6.47;3.45;;;;;;;;;;5050167;28;20215;-67
2023/05/20 05:37:15;;;;;;;7.90;3.78;;;;;;;;;;5049223;28;20211;-67
2023/05/20 05:39:40;;;;;;;6.90;3.13;;;;;;;;;;5049903;28;20221;-67
2023/05/20 05:42:05;;;;;;;7.55;3.47;;;;;;;;;;5049579;28;20284;-68
2023/05/20 05:44:30;;;;;;;6.60;2.80;;;;;;;;;;5049483;28;20207;-67
2023/05/20 05:46:56;;;;;;;7.70;3.50;;;;;;;;;;5049536;28;20214;-68
2023/05/20 05:49:21;;;;;;;6.40;2.88;;;;;;;;;;5049525;28;20219;-68
2023/05/20 05:51:46;;;;;;;7.55;3.30;;;;;;;;;;5049402;28;20218;-67
2023/05/20 05:54:11;;;;;;;5.80;2.80;;;;;;;;;;5049442;28;20210;-67
2023/05/20 05:56:37;;;;;;;6.82;3.30;;;;;;;;;;5049850;28;20286;-68
2023/05/20 05:59:03;;;;;;;6.53;2.90;;;;;;;;;;5052206;28;20701;-68
2023/05/20 06:01:28;;;;;;;5.90;2.72;;;;;;;;;;5053807;28;20207;-67
2023/05/20 06:03:54;;;;;;;7.50;3.40;;;;;;;;;;5053814;28;20207;-67
2023/05/20 06:06:19;;;;;;;8.07;3.25;;;;;;;;;;5052606;28;20268;-67
2023/05/20 06:08:44;;;;;;;6.07;3.05;;;;;;;;;;5053688;28;20203;-68
2023/05/20 06:11:09;;;;;;;6.50;2.83;;;;;;;;;;5053181;28;20210;-67
2023/05/20 06:13:35;;;;;;;7.05;3.08;;;;;;;;;;5052858;28;20214;-68
2023/05/20 06:16:00;;;;;;;5.68;3.10;;;;;;;;;;5053265;28;20211;-68
2023/05/20 06:18:25;;;;;;;6.22;2.80;;;;;;;;;;5052829;28;20250;-67
2023/05/20 06:20:57;;;;;;;6.57;2.60;;;;;;;;;;5052729;28;20206;-68
2023/05/20 06:23:22;;;;;;;6.97;2.80;;;;;;;;;;5053095;28;20685;-68
2023/05/20 06:25:48;;;;;;;6.53;2.78;;;;;;;;;;5053029;28;20211;-68
2023/05/20 06:28:13;;;;;;;7.00;3.00;;;;;;;;;;5052618;28;20242;-67
2023/05/20 06:30:39;;;;;;;5.07;2.90;;;;;;;;;;5053202;28;20642;-68
2023/05/20 06:33:05;;;;;;;6.07;2.65;;;;;;;;;;5052223;28;20746;-67
2023/05/20 06:35:30;;;;;;;5.60;2.90;;;;;;;;;;5053028;28;20298;-68
2023/05/20 06:37:55;;;;;;;6.40;2.90;;;;;;;;;;5053197;28;20211;-68
2023/05/20 06:40:20;;;;;;;5.55;2.55;;;;;;;;;;5052280;28;20204;-67
2023/05/20 06:42:46;;;;;;;6.93;2.67;;;;;;;;;;5052792;28;20203;-68
2023/05/20 06:45:12;;;;;;;6.32;3.20;;;;;;;;;;5052609;28;20219;-68
2023/05/20 06:47:37;;;;;;;6.90;2.70;;;;;;;;;;5052582;28;20293;-68
2023/05/20 06:50:03;;;;;;;8.52;2.63;;;;;;;;;;5052132;28;20235;-68
2023/05/20 06:52:28;;;;;;;6.20;2.40;;;;;;;;;;5052903;28;20211;-68
2023/05/20 06:54:53;;;;;;;6.85;2.92;;;;;;;;;;5052243;28;20203;-68
2023/05/20 06:57:19;;;;;;;6.18;2.88;;;;;;;;;;5052181;28;20214;-68
2023/05/20 06:59:44;;;;;;;4.25;2.70;;;;;;;;;;5052702;28;20266;-68
2023/05/20 07:02:09;;;;;;;6.35;2.90;;;;;;;;;;5051588;28;20223;-67
2023/05/20 07:04:35;;;;;;;7.47;2.85;;;;;;;;;;5052527;28;20205;-69
2023/05/20 07:07:00;;;;;;;6.03;2.60;;;;;;;;;;5052645;28;20217;-68
2023/05/20 07:09:25;;;;;;;4.85;2.83;;;;;;;;;;5050450;28;20729;-68
2023/05/20 07:11:50;;;;;;;5.45;2.85;;;;;;;;;;5052634;28;20225;-68
2023/05/20 07:14:16;;;;;;;6.30;3.22;;;;;;;;;;5046503;28;20703;-68
2023/05/20 07:16:41;;;;;;;5.22;2.95;;;;;;;;;;5050111;28;20211;-68
2023/05/20 07:19:06;;;;;;;5.30;3.80;;;;;;;;;;5051580;28;20230;-67
2023/05/20 07:21:32;;;;;;;6.63;2.88;;;;;;;;;;5052445;28;20214;-68
2023/05/20 07:23:57;;;;;;;5.03;2.80;;;;;;;;;;5051647;28;20203;-68
2023/05/20 07:26:22;;;;;;;4.50;2.65;;;;;;;;;;5051935;28;20294;-69
2023/05/20 07:28:47;;;;;;;4.95;2.65;;;;;;;;;;5052113;28;20211;-69
2023/05/20 07:31:13;;;;;;;7.10;2.58;;;;;;;;;;5051014;28;20253;-68
2023/05/20 07:33:38;;;;;;;6.60;3.28;;;;;;;;;;5052152;28;20631;-68
2023/05/20 07:36:03;;;;;;;4.90;2.55;;;;;;;;;;5051188;28;20231;-67
2023/05/20 07:38:29;;;;;;;6.07;3.10;;;;;;;;;;5051829;28;20692;-69
2023/05/20 07:40:54;;;;;;;6.65;2.90;;;;;;;;;;5052098;28;20318;-68
2023/05/20 07:43:19;;;;;;;7.80;3.45;;;;;;;;;;5051073;28;20271;-69
2023/05/20 07:45:45;;;;;;;7.93;3.10;;;;;;;;;;5051564;28;20203;-68
2023/05/20 07:48:11;;;;;;;5.50;2.88;;;;;;;;;;5051515;28;20211;-68
2023/05/20 07:50:38;;;;;;;9.07;3.55;;;;;;;;;;5051126;28;20227;-68
2023/05/20 07:53:04;;;;;;;8.55;2.80;;;;;;;;;;5051144;28;20263;-68
2023/05/20 07:55:30;;;;;;;5.50;3.00;;;;;;;;;;5051679;28;20226;-68
2023/05/20 07:57:55;;;;;;;5.28;2.70;;;;;;;;;;5051134;28;20211;-69
2023/05/20 08:00:20;;;;;;;6.90;3.08;;;;;;;;;;5050961;28;20261;-68
2023/05/20 08:02:46;;;;;;;5.82;3.00;;;;;;;;;;5051619;28;20348;-69
2023/05/20 08:05:11;;;;;;;5.43;2.85;;;;;;;;;;5050406;28;20282;-68
2023/05/20 08:07:36;;;;;;;10.82;3.08;;;;;;;;;;5051505;28;20288;-69
2023/05/20 08:10:02;;;;;;;5.30;2.70;;;;;;;;;;5050876;28;20223;-68
2023/05/20 08:12:27;;;;;;;7.13;3.00;;;;;;;;;;5050784;28;20289;-68
2023/05/20 08:14:52;;;;;;;6.32;2.72;;;;;;;;;;5051205;28;20206;-69
2023/05/20 08:17:18;;;;;;;3.85;2.45;;;;;;;;;;5050722;28;20216;-68
2023/05/20 08:19:43;;;;;;;7.03;3.00;;;;;;;;;;5050229;28;20234;-69
2023/05/20 08:22:08;;;;;;;5.53;2.72;;;;;;;;;;5050580;28;20265;-68
2023/05/20 08:24:33;;;;;;;9.23;2.70;;;;;;;;;;5051123;28;20690;-69
2023/05/20 08:26:59;;;;;;;9.70;2.95;;;;;;;;;;5050487;28;20608;-69
2023/05/20 08:29:24;;;;;;;5.15;2.60;;;;;;;;;;5050532;28;20222;-69
2023/05/20 08:31:51;;;;;;;5.63;2.58;;;;;;;;;;5050954;28;20226;-69
2023/05/20 08:34:16;;;;;;;3.60;2.63;;;;;;;;;;5049813;28;20215;-69
2023/05/20 08:36:43;;;;;;;5.80;2.53;;;;;;;;;;5050781;28;20210;-69
2023/05/20 08:39:09;;;;;;;4.47;2.42;;;;;;;;;;5050480;28;20211;-68
2023/05/20 08:41:34;;;;;;;4.13;2.30;;;;;;;;;;5050113;28;20222;-68
2023/05/20 08:44:00;;;;;;;5.95;2.20;;;;;;;;;;5050889;28;20211;-69
2023/05/20 08:46:25;;;;;;;3.92;2.17;;;;;;;;;;5048600;28;20222;-69
2023/05/20 08:48:51;;;;;;;6.13;2.58;;;;;;;;;;5050464;28;20219;-68
2023/05/20 08:51:17;;;;;;;5.53;2.38;;;;;;;;;;5048873;28;20725;-68
2023/05/20 08:53:42;;;;;;;5.85;2.38;;;;;;;;;;5050277;28;20226;-69
2023/05/20 08:56:07;;;;;;;6.50;2.30;;;;;;;;;;5048641;28;20264;-68
2023/05/20 08:58:33;;;;;;;3.33;1.92;;;;;;;;;;5049361;28;20214;-69
2023/05/20 09:00:58;;;;;;;7.05;2.22;;;;;;;;;;5050083;28;20317;-68
2023/05/20 09:03:24;;;;;;;7.63;2.40;;;;;;;;;;5049901;28;20215;-68
2023/05/20 09:05:49;;;;;;;4.85;1.90;;;;;;;;;;5050312;28;20214;-66
2023/05/20 09:08:15;;;;;;;5.88;2.70;;;;;;;;;;5049427;28;20215;-65
2023/05/20 09:10:40;;;;;;;4.55;1.75;;;;;;;;;;5049910;28;20652;-66
2023/05/20 09:13:06;;;;;;;4.00;2.00;;;;;;;;;;5050058;28;20238;-65
2023/05/20 09:15:31;;;;;;;5.93;2.10;;;;;;;;;;5049428;28;20207;-66
2023/05/20 09:18:00;;;;;;;9.98;2.08;;;;;;;;;;5050028;28;20227;-67
2023/05/20 09:20:28;;;;;;;5.30;2.60;;;;;;;;;;5049890;28;20218;-66
2023/05/20 09:22:53;;;;;;;6.82;2.15;;;;;;;;;;5049438;28;20211;-66
2023/05/20 09:25:19;;;;;;;4.28;1.92;;;;;;;;;;5049842;28;20584;-67
2023/05/20 09:27:44;;;;;;;9.10;2.40;;;;;;;;;;5050193;28;20291;-67
2023/05/20 09:30:11;;;;;;;5.90;2.10;;;;;;;;;;5048933;28;20219;-66
2023/05/20 09:32:37;;;;;;;4.97;2.13;;;;;;;;;;5049663;28;20245;-66
2023/05/20 09:35:03;;;;;;;4.68;1.88;;;;;;;;;;5049600;28;20199;-65
2023/05/20 09:37:28;;;;;;;11.80;2.35;;;;;;;;;;5049286;28;20211;-66
2023/05/20 09:39:59;;;;;;;4.88;1.90;;;;;;;;;;5050109;28;20689;-66
2023/05/20 09:42:30;;;;;;;3.55;1.90;;;;;;;;;;5049621;28;20541;-65
2023/05/20 09:44:56;;;;;;;4.30;1.73;;;;;;;;;;5048137;28;20249;-66
2023/05/20 09:47:22;;;;;;;7.72;2.47;;;;;;;;;;5048102;28;20211;-65
2023/05/20 09:49:48;;;;;;;8.95;2.22;;;;;;;;;;5049284;28;20272;-66
2023/05/20 09:52:14;;;;;;;4.20;1.90;;;;;;;;;;5047795;28;20289;-67
2023/05/20 09:54:39;;;;;;;5.43;2.20;;;;;;;;;;5050044;28;20261;-66
2023/05/20 09:57:05;;;;;;;4.13;2.10;;;;;;;;;;5048971;28;20207;-65
2023/05/20 09:59:30;;;;;;;6.40;2.28;;;;;;;;;;5049738;28;20218;-67
2023/05/20 10:01:55;;;;;;;4.93;2.10;;;;;;;;;;5049900;28;20206;-66
2023/05/20 10:04:21;;;;;;;5.05;2.17;;;;;;;;;;5048863;28;20616;-66
2023/05/20 10:06:55;;;;;;;5.28;2.00;;;;;;;;;;5048234;28;20230;-67
2023/05/20 10:09:23;;;;;;;5.13;2.20;;;;;;;;;;5048037;28;20299;-66
2023/05/20 10:12:04;;;;;;;4.43;2.45;;;;;;;;;;5048927;28;20752;-66
2023/05/20 10:14:48;;;;;;;8.95;2.50;;;;;;;;;;5047263;28;20207;-66
2023/05/20 10:17:34;;;;;;;3.13;1.55;;;;;;;;;;5047917;28;20219;-67
2023/05/20 10:19:59;;;;;;;4.32;1.70;;;;;;;;;;5017509;28;20310;-66
2023/05/20 10:22:26;;;;;;;4.88;2.00;;;;;;;;;;5049183;28;20325;-67
2023/05/20 10:24:56;;;;;;;4.35;2.10;;;;;;;;;;5049038;28;20219;-67
2023/05/20 10:27:21;;;;;;;5.30;2.50;;;;;;;;;;5048878;28;20202;-67
2023/05/20 10:29:50;;;;;;;6.70;2.00;;;;;;;;;;5049577;28;20230;-67
2023/05/20 10:32:26;;;;;;;5.18;1.90;;;;;;;;;;5048649;28;20213;-66
2023/05/20 10:34:51;;;;;;;6.82;1.85;;;;;;;;;;5049251;28;20264;-67
2023/05/20 10:37:21;;;;;;;6.88;2.00;;;;;;;;;;5048992;28;20211;-66
2023/05/20 10:39:47;;;;;;;5.15;1.98;;;;;;;;;;5048681;28;20284;-66
2023/05/20 10:42:12;;;;;;;8.48;2.42;;;;;;;;;;5049071;28;20226;-67
2023/05/20 10:44:43;;;;;;;4.63;1.90;;;;;;;;;;5050543;28;20219;-66
2023/05/20 10:47:09;;;;;;;4.03;2.00;;;;;;;;;;5051856;28;20325;-65
2023/05/20 10:49:37;;;;;;;7.35;1.90;;;;;;;;;;5052881;28;20306;-66
2023/05/20 10:52:02;;;;;;;5.13;2.08;;;;;;;;;;5052692;28;20219;-66
2023/05/20 10:54:28;;;;;;;4.03;2.17;;;;;;;;;;5051999;28;20215;-67
2023/05/20 10:56:53;;;;;;;3.70;2.05;;;;;;;;;;5052772;28;20215;-67
2023/05/20 10:59:20;;;;;;;6.13;1.92;;;;;;;;;;5052410;28;20233;-66
2023/05/20 11:01:45;;;;;;;8.15;1.85;;;;;;;;;;5052223;28;20837;-66
2023/05/20 11:04:11;;;;;;;13.38;2.22;;;;;;;;;;5051026;28;20210;-66
2023/05/20 11:06:37;;;;;;;3.70;1.90;;;;;;;;;;5051438;28;20211;-67
2023/05/20 11:09:03;;;;;;;4.28;1.80;;;;;;;;;;5051096;28;20223;-65
2023/05/20 11:11:28;;;;;;;5.57;1.80;;;;;;;;;;5052781;28;20207;-66
2023/05/20 11:13:55;;;;;;;5.82;2.22;;;;;;;;;;5051022;28;20215;-67
2023/05/20 11:16:21;;;;;;;5.53;1.70;;;;;;;;;;5051349;28;20223;-67
2023/05/20 11:18:47;;;;;;;6.40;1.80;;;;;;;;;;5052191;28;20218;-66
2023/05/20 11:21:12;;;;;;;6.95;2.13;;;;;;;;;;5051452;28;20215;-66
2023/05/20 11:23:37;;;;;;;4.57;1.90;;;;;;;;;;5052026;28;20205;-67
2023/05/20 11:26:04;;;;;;;9.23;1.90;;;;;;;;;;5051903;28;20753;-66
2023/05/20 11:28:29;;;;;;;7.53;1.73;;;;;;;;;;5051785;28;20290;-66
2023/05/20 11:30:55;;;;;;;5.15;1.50;;;;;;;;;;5052086;28;20310;-66
2023/05/20 11:33:20;;;;;;;4.65;1.70;;;;;;;;;;5050464;28;20655;-66
2023/05/20 11:35:46;;;;;;;4.50;1.80;;;;;;;;;;5050297;28;20306;-66
2023/05/20 11:38:11;;;;;;;4.75;2.03;;;;;;;;;;5051579;28;20210;-66
2023/05/20 11:40:37;;;;;;;6.13;1.80;;;;;;;;;;5051914;28;20203;-67
2023/05/20 11:43:02;;;;;;;5.95;1.90;;;;;;;;;;5050884;28;20206;-68
2023/05/20 11:45:43;;;;;;;2.78;1.58;;;;;;;;;;5052019;28;20239;-67
2023/05/20 11:48:09;;;;;;;4.28;1.90;;;;;;;;;;5051391;28;20207;-67
2023/05/20 11:50:39;;;;;;;4.38;1.70;;;;;;;;;;5050996;28;20226;-68
2023/05/20 11:53:04;;;;;;;6.50;2.00;;;;;;;;;;5051288;28;20715;-67
2023/05/20 11:55:33;;;;;;;4.70;1.80;;;;;;;;;;5051202;28;20230;-68
2023/05/20 11:57:59;;;;;;;3.30;1.52;;;;;;;;;;5051065;28;20261;-67
2023/05/20 12:00:24;;;;;;;6.72;2.03;;;;;;;;;;5051165;28;20674;-68
2023/05/20 12:02:49;;;;;;;5.30;1.63;;;;;;;;;;5051748;28;20659;-67
2023/05/20 12:05:15;;;;;;;6.60;1.80;;;;;;;;;;5050297;28;20211;-67
2023/05/20 12:07:40;;;;;;;7.45;1.77;;;;;;;;;;5051524;28;20283;-67
2023/05/20 12:10:06;;;;;;;6.07;1.65;;;;;;;;;;5050579;28;20237;-66
2023/05/20 12:12:32;;;;;;;2.90;1.67;;;;;;;;;;5050973;28;20227;-67
2023/05/20 12:14:57;;;;;;;4.85;1.85;;;;;;;;;;5051164;28;20207;-67
2023/05/20 12:17:22;;;;;;;4.53;1.70;;;;;;;;;;5050397;28;20207;-67
2023/05/20 12:19:47;;;;;;;2.95;1.50;;;;;;;;;;5050667;28;20230;-68
2023/05/20 12:22:13;;;;;;;4.70;1.70;;;;;;;;;;5050872;28;20203;-68
2023/05/20 12:24:38;;;;;;;4.07;1.60;;;;;;;;;;5050634;28;21032;-68
2023/05/20 12:27:05;;;;;;;4.25;1.52;;;;;;;;;;5050697;28;20203;-67
2023/05/20 12:29:30;;;;;;;5.40;1.67;;;;;;;;;;5050877;28;20226;-69
2023/05/20 12:31:55;;;;;;;6.30;1.80;;;;;;;;;;5047194;28;20227;-67
2023/05/20 12:34:21;;;;;;;2.95;1.65;;;;;;;;;;5021818;28;20220;-67
2023/05/20 12:36:47;;;;;;;5.68;1.50;;;;;;;;;;5031676;28;20243;-68
2023/05/20 12:39:13;;;;;;;6.65;1.88;;;;;;;;;;5037538;28;20323;-67
2023/05/20 12:41:39;;;;;;;6.00;1.75;;;;;;;;;;5036183;28;20238;-68
2023/05/20 12:44:04;;;;;;;3.58;1.50;;;;;;;;;;5025419;28;20629;-67
2023/05/20 12:46:29;;;;;;;3.97;1.70;;;;;;;;;;5044016;28;20226;-68
2023/05/20 12:48:55;;;;;;;5.45;1.63;;;;;;;;;;5044705;28;20242;-67
2023/05/20 12:51:20;;;;;;;6.38;1.98;;;;;;;;;;5026623;28;20222;-67
2023/05/20 12:53:45;;;;;;;5.65;2.05;;;;;;;;;;5024786;28;20278;-67
2023/05/20 12:56:11;;;;;;;3.83;1.98;;;;;;;;;;5020002;28;20843;-67
2023/05/20 12:58:36;;;;;;;8.93;2.72;;;;;;;;;;5036279;28;20660;-68
2023/05/20 13:01:01;;;;;;;6.55;2.00;;;;;;;;;;5019873;28;20626;-67
2023/05/20 13:03:26;;;;;;;7.93;2.35;;;;;;;;;;5041557;28;20211;-67
2023/05/20 13:05:52;;;;;;;10.68;2.05;;;;;;;;;;5044436;28;20749;-68
2023/05/20 13:08:17;;;;;;;4.22;1.90;;;;;;;;;;5026173;28;20285;-67
2023/05/20 13:10:42;;;;;;;6.57;2.08;;;;;;;;;;5024989;28;20709;-68
2023/05/20 13:13:07;;;;;;;7.68;2.10;;;;;;;;;;5027155;28;20220;-68
2023/05/20 13:15:33;;;;;;;6.85;1.90;;;;;;;;;;5024876;28;20563;-68
2023/05/20 13:18:00;;;;;;;5.18;2.03;;;;;;;;;;5026063;28;20224;-68
2023/05/20 13:20:25;;;;;;;3.15;1.70;;;;;;;;;;5027521;28;20219;-67
2023/05/20 13:22:50;;;;;;;5.05;1.83;;;;;;;;;;5024099;28;20226;-68
2023/05/20 13:25:16;;;;;;;4.97;1.52;;;;;;;;;;5019467;28;20219;-67
2023/05/20 13:27:41;;;;;;;5.78;2.30;;;;;;;;;;5031736;28;20655;-68
2023/05/20 13:30:07;;;;;;;4.57;2.20;;;;;;;;;;5043581;28;20223;-66
2023/05/20 13:32:32;;;;;;;5.47;1.90;;;;;;;;;;5032685;28;20679;-68
2023/05/20 13:34:58;;;;;;;6.10;1.63;;;;;;;;;;5046896;28;20214;-68
2023/05/20 13:37:23;;;;;;;6.43;1.80;;;;;;;;;;5049426;28;20885;-67
2023/05/20 13:39:49;;;;;;;6.30;2.13;;;;;;;;;;5050059;28;20211;-67
2023/05/20 13:42:15;;;;;;;3.58;1.80;;;;;;;;;;5033193;28;20243;-67
2023/05/20 13:44:40;;;;;;;8.32;1.75;;;;;;;;;;5030278;28;20212;-67
2023/05/20 13:47:05;;;;;;;6.13;1.70;;;;;;;;;;5029634;28;20227;-67
2023/05/20 13:49:30;;;;;;;4.13;1.83;;;;;;;;;;5029275;28;20236;-68
2023/05/20 13:51:56;;;;;;;3.97;1.70;;;;;;;;;;5030048;28;20204;-67
2023/05/20 13:54:21;;;;;;;6.35;2.40;;;;;;;;;;5029639;28;20365;-67
2023/05/20 13:56:47;;;;;;;7.13;1.73;;;;;;;;;;5029347;28;20215;-67
2023/05/20 13:59:12;;;;;;;6.10;1.70;;;;;;;;;;5029485;28;20207;-68
2023/05/20 14:01:37;;;;;;;5.70;1.73;;;;;;;;;;5029934;28;20641;-68
2023/05/20 14:04:03;;;;;;;5.05;2.00;;;;;;;;;;5029065;28;20207;-67
2023/05/20 14:06:29;;;;;;;3.60;1.55;;;;;;;;;;5029933;28;20207;-67
2023/05/20 14:08:55;;;;;;;4.32;1.65;;;;;;;;;;5046371;28;20203;-67
2023/05/20 14:11:20;;;;;;;5.10;1.40;;;;;;;;;;5048649;28;20607;-67
2023/05/20 14:13:45;;;;;;;6.10;1.65;;;;;;;;;;5049611;28;20686;-67
2023/05/20 14:16:11;;;;;;;3.92;1.40;;;;;;;;;;5049192;28;20272;-67
2023/05/20 14:18:36;;;;;;;7.22;1.67;;;;;;;;;;5049696;28;20277;-68
2023/05/20 14:21:01;;;;;;;6.75;1.85;;;;;;;;;;5053247;28;20758;-66
2023/05/20 14:23:26;;;;;;;3.03;1.50;;;;;;;;;;5053462;28;20242;-67
2023/05/20 14:25:52;;;;;;;3.40;1.83;;;;;;;;;;5052760;28;20211;-67
2023/05/20 14:28:17;;;;;;;8.57;1.83;;;;;;;;;;5052709;28;20822;-67
2023/05/20 14:30:42;;;;;;;5.15;1.55;;;;;;;;;;5053357;28;20250;-67
2023/05/20 14:33:08;;;;;;;3.42;1.50;;;;;;;;;;5051625;28;20207;-67